createdAt,value
2023-04-12T00:00:22.864Z,100850.13
2023-04-12T00:03:25.738Z,100847.03
2023-04-12T00:06:32.661Z,100852.63
2023-04-12T00:09:36.503Z,100845.97
2023-04-12T00:12:41.644Z,100835.34
2023-04-12T00:15:44.537Z,100847.06
2023-04-12T00:18:47.433Z,100834.72
2023-04-12T00:21:50.300Z,100836.22
2023-04-12T00:24:53.197Z,100842.31
2023-04-12T00:27:57.370Z,100835.63
2023-04-12T00:31:00.113Z,100831.66
2023-04-12T00:34:03.044Z,100830.00
2023-04-12T00:37:05.768Z,100828.13
2023-04-12T00:40:10.804Z,100826.00
2023-04-12T00:43:19.073Z,100831.06
2023-04-12T00:46:21.974Z,100828.56
2023-04-12T00:49:24.933Z,100833.16
2023-04-12T00:52:29.112Z,100821.66
2023-04-12T00:55:32.234Z,100815.19
2023-04-12T00:58:36.650Z,100816.47
2023-04-12T01:01:41.519Z,100817.31
2023-04-12T01:04:45.075Z,100813.78
2023-04-12T01:07:54.512Z,100801.66
2023-04-12T01:11:05.344Z,100810.25
2023-04-12T01:14:16.497Z,100799.78
2023-04-12T01:17:25.031Z,100794.38
2023-04-12T01:20:31.332Z,100795.44
2023-04-12T01:24:02.870Z,100788.38
2023-04-12T01:27:13.635Z,100797.75
2023-04-12T01:30:20.592Z,100789.41
2023-04-12T01:33:31.278Z,100778.78
2023-04-12T01:36:35.607Z,100778.38
2023-04-12T01:39:38.691Z,100784.22
2023-04-12T01:42:41.383Z,100779.41
2023-04-12T01:45:46.274Z,100778.16
2023-04-12T01:48:51.266Z,100781.53
2023-04-12T01:51:59.444Z,100779.44
2023-04-12T01:55:06.074Z,100774.84
2023-04-12T01:58:11.630Z,100768.41
2023-04-12T02:01:18.423Z,100767.34
2023-04-12T02:04:22.479Z,100767.56
2023-04-12T02:07:25.354Z,100763.81
2023-04-12T02:10:31.987Z,100770.06
2023-04-12T02:13:34.674Z,100765.69
2023-04-12T02:16:39.579Z,100760.03
2023-04-12T02:19:42.288Z,100757.94
2023-04-12T02:22:45.138Z,100741.47
2023-04-12T02:25:47.866Z,100743.56
2023-04-12T02:28:50.707Z,100745.47
2023-04-12T02:31:54.909Z,100740.84
2023-04-12T02:34:59.216Z,100738.13
2023-04-12T02:38:02.026Z,100735.84
2023-04-12T02:41:04.871Z,100738.78
2023-04-12T02:44:07.726Z,100731.66
2023-04-12T02:47:11.886Z,100725.00
2023-04-12T02:50:14.724Z,100722.94
2023-04-12T02:53:17.875Z,100715.00
2023-04-12T02:56:21.826Z,100717.72
2023-04-12T02:59:25.252Z,100719.56
2023-04-12T03:02:29.703Z,100708.53
2023-04-12T03:05:32.752Z,100701.03
2023-04-12T03:08:36.077Z,100699.34
2023-04-12T03:11:39.298Z,100705.19
2023-04-12T03:14:42.012Z,100694.97
2023-04-12T03:17:46.284Z,100689.34
2023-04-12T03:20:49.116Z,100692.06
2023-04-12T03:23:52.583Z,100693.31
2023-04-12T03:26:55.922Z,100691.03
2023-04-12T03:29:58.664Z,100687.03
2023-04-12T03:33:03.192Z,100677.47
2023-04-12T03:36:06.813Z,100677.03
2023-04-12T03:39:09.507Z,100660.59
2023-04-12T03:45:32.698Z,100653.53
2023-04-12T03:48:37.902Z,100649.97
2023-04-12T03:51:42.662Z,100636.84
2023-04-12T03:54:45.559Z,100638.09
2023-04-12T03:57:48.602Z,100643.91
2023-04-12T04:00:51.652Z,100629.53
2023-04-12T04:03:56.122Z,100632.25
2023-04-12T04:06:59.330Z,100624.34
2023-04-12T04:10:02.769Z,100624.97
2023-04-12T04:13:05.458Z,100618.28
2023-04-12T04:16:11.018Z,100611.19
2023-04-12T04:19:15.687Z,100616.81
2023-04-12T04:22:21.660Z,100619.75
2023-04-12T04:25:29.826Z,100621.19
2023-04-12T04:28:35.170Z,100625.56
2023-04-12T04:31:38.051Z,100617.84
2023-04-12T04:34:42.327Z,100621.63
2023-04-12T04:37:45.489Z,100618.28
2023-04-12T04:40:53.250Z,100609.72
2023-04-12T04:43:56.264Z,100618.69
2023-04-12T04:47:00.691Z,100614.94
2023-04-12T04:50:05.309Z,100612.03
2023-04-12T04:53:08.024Z,100605.56
2023-04-12T04:56:11.498Z,100603.69
2023-04-12T04:59:14.261Z,100603.84
2023-04-12T05:02:17.349Z,100594.91
2023-04-12T05:05:23.251Z,100596.28
2023-04-12T05:08:26.596Z,100599.19
2023-04-12T05:11:29.446Z,100593.25
2023-04-12T05:14:45.417Z,100589.63
2023-04-12T05:17:50.608Z,100592.78
2023-04-12T05:20:54.726Z,100585.19
2023-04-12T05:23:57.574Z,100576.78
2023-04-12T05:27:00.324Z,100578.44
2023-04-12T05:30:03.149Z,100582.00
2023-04-12T05:33:05.846Z,100579.44
2023-04-12T05:36:10.823Z,100574.34
2023-04-12T05:39:13.880Z,100572.00
2023-04-12T05:42:16.619Z,100573.63
2023-04-12T05:45:19.355Z,100562.03
2023-04-12T05:48:23.263Z,100562.97
2023-04-12T05:51:39.747Z,100549.00
2023-04-12T05:54:43.541Z,100543.75
2023-04-12T05:57:47.518Z,100542.75
2023-04-12T06:00:50.353Z,100529.91
2023-04-12T06:03:53.202Z,100531.63
2023-04-12T06:06:57.842Z,100525.63
2023-04-12T06:10:00.583Z,100518.78
2023-04-12T06:13:03.468Z,100513.19
2023-04-12T06:16:07.031Z,100508.09
2023-04-12T06:19:10.933Z,100504.06
2023-04-12T06:22:15.027Z,100497.25
2023-04-12T06:25:17.790Z,100494.81
2023-04-12T06:28:20.673Z,100478.34
2023-04-12T06:31:23.566Z,100482.81
2023-04-12T06:34:26.575Z,100480.34
2023-04-12T06:37:30.718Z,100471.41
2023-04-12T06:40:33.661Z,100474.97
2023-04-12T06:43:36.963Z,100472.63
2023-04-12T06:46:39.894Z,100461.75
2023-04-12T06:49:42.870Z,100475.28
2023-04-12T06:52:48.346Z,100463.25
2023-04-12T06:55:51.146Z,100457.47
2023-04-12T06:58:53.874Z,100455.50
2023-04-12T07:01:56.748Z,100452.75
2023-04-12T07:04:59.446Z,100444.94
2023-04-12T07:08:03.610Z,100441.44
2023-04-12T07:11:20.049Z,100438.09
2023-04-12T07:14:24.098Z,100434.59
2023-04-12T07:17:27.995Z,100430.66
2023-04-12T07:20:30.881Z,100430.53
2023-04-12T07:23:35.107Z,100426.50
2023-04-12T07:26:37.869Z,100410.09
2023-04-12T07:29:40.702Z,100413.22
2023-04-12T07:32:43.503Z,100406.44
2023-04-12T07:35:46.281Z,100405.97
2023-04-12T07:38:55.146Z,100393.00
2023-04-12T07:41:58.712Z,100393.31
2023-04-12T07:45:01.581Z,100388.72
2023-04-12T07:48:04.788Z,100372.66
2023-04-12T07:51:07.771Z,100377.47
2023-04-12T07:54:31.672Z,100373.41
2023-04-12T07:57:34.534Z,100371.38
2023-04-12T08:00:37.447Z,100358.84
2023-04-12T08:03:40.276Z,100361.81
2023-04-12T08:06:43.446Z,100355.06
2023-04-12T08:09:48.319Z,100354.31
2023-04-12T08:12:51.189Z,100351.53
2023-04-12T08:15:54.120Z,100353.13
2023-04-12T08:18:57.615Z,100349.63
2023-04-12T08:22:00.479Z,100340.84
2023-04-12T08:25:04.786Z,100342.75
2023-04-12T08:28:08.514Z,100330.44
2023-04-12T08:31:11.636Z,100323.56
2023-04-12T08:34:14.555Z,100323.47
2023-04-12T08:37:18.030Z,100320.19
2023-04-12T08:40:22.779Z,100312.06
2023-04-12T08:43:29.792Z,100307.44
2023-04-12T08:46:32.707Z,100308.22
2023-04-12T08:49:36.205Z,100307.19
2023-04-12T08:52:39.581Z,100305.75
2023-04-12T08:55:46.240Z,100308.72
2023-04-12T08:58:49.860Z,100307.75
2023-04-12T09:01:53.819Z,100289.91
2023-04-12T09:04:56.986Z,100294.03
2023-04-12T09:08:00.070Z,100288.28
2023-04-12T09:11:23.223Z,100275.91
2023-04-12T09:14:27.386Z,100291.91
2023-04-12T09:17:30.405Z,100272.16
2023-04-12T09:20:33.484Z,100262.72
2023-04-12T09:23:37.276Z,100258.25
2023-04-12T09:26:41.380Z,100258.03
2023-04-12T09:29:45.567Z,100249.00
2023-04-12T09:32:49.522Z,100251.78
2023-04-12T09:36:01.498Z,100247.19
2023-04-12T09:39:05.191Z,100249.28
2023-04-12T09:42:25.493Z,100229.88
2023-04-12T09:45:35.766Z,100209.75
2023-04-12T09:48:39.146Z,100213.06
2023-04-12T09:51:42.097Z,100200.56
2023-04-12T09:54:46.443Z,100196.72
2023-04-12T09:57:52.516Z,100192.44
2023-04-12T10:00:58.108Z,100177.06
2023-04-12T10:04:01.859Z,100172.63
2023-04-12T10:07:05.900Z,100165.13
2023-04-12T10:10:12.218Z,100159.28
2023-04-12T10:13:18.532Z,100146.47
2023-04-12T10:16:22.426Z,100134.56
2023-04-12T10:19:27.016Z,100134.13
2023-04-12T10:22:30.282Z,100128.94
2023-04-12T10:25:34.118Z,100117.34
2023-04-12T10:28:38.390Z,100112.06
2023-04-12T10:31:42.185Z,100109.66
2023-04-12T10:34:44.996Z,100106.19
2023-04-12T10:38:01.357Z,100099.72
2023-04-12T10:41:18.465Z,100098.88
2023-04-12T10:44:28.560Z,100090.81
2023-04-12T10:48:03.898Z,100083.19
2023-04-12T10:51:22.897Z,100070.19
2023-04-12T10:54:35.481Z,100067.75
2023-04-12T10:57:47.206Z,100053.69
2023-04-12T11:01:18.244Z,100058.91
2023-04-12T11:04:22.698Z,100042.53
2023-04-12T11:07:40.449Z,100038.69
2023-04-12T11:10:47.149Z,100032.59
2023-04-12T11:13:49.987Z,100025.63
2023-04-12T11:17:25.937Z,100032.72
2023-04-12T11:20:29.068Z,100017.56
2023-04-12T11:23:32.338Z,100009.59
2023-04-12T11:26:37.708Z,100024.81
2023-04-12T11:29:40.908Z,100013.84
2023-04-12T11:32:47.739Z,100001.94
2023-04-12T11:35:50.613Z,99996.50
2023-04-12T11:38:56.751Z,100007.44
2023-04-12T11:42:02.400Z,99996.53
2023-04-12T11:45:15.412Z,99987.84
2023-04-12T11:48:21.925Z,99994.56
2023-04-12T11:51:29.894Z,99978.31
2023-04-12T11:54:35.147Z,99972.47
2023-04-12T11:57:40.080Z,99956.66
2023-04-12T12:00:44.992Z,99950.69
2023-04-12T12:03:50.505Z,99952.81
2023-04-12T12:06:54.222Z,99946.91
2023-04-12T12:09:57.462Z,99925.34
2023-04-12T12:13:01.123Z,99936.31
2023-04-12T12:16:08.505Z,99939.88
2023-04-12T12:19:12.608Z,99913.19
2023-04-12T12:22:17.530Z,99906.41
2023-04-12T12:25:20.821Z,99900.34
2023-04-12T12:28:24.938Z,99888.25
2023-04-12T12:31:29.120Z,99886.94
2023-04-12T12:34:35.109Z,99891.78
2023-04-12T12:37:37.873Z,99882.50
2023-04-12T12:40:40.797Z,99878.63
2023-04-12T12:43:46.547Z,99870.53
2023-04-12T12:46:55.531Z,99878.47
2023-04-12T12:50:01.207Z,99861.06
2023-04-12T12:53:06.108Z,99864.66
2023-04-12T12:56:10.208Z,99869.22
2023-04-12T12:59:12.965Z,99856.44
2023-04-12T13:02:18.210Z,99847.56
2023-04-12T13:05:23.334Z,99839.13
2023-04-12T13:08:26.988Z,99829.50
2023-04-12T13:11:29.706Z,99830.41
2023-04-12T13:14:32.637Z,99826.31
2023-04-12T13:17:35.690Z,99830.06
2023-04-12T13:20:40.014Z,99813.41
2023-04-12T13:23:42.771Z,99818.50
2023-04-12T13:26:46.054Z,99804.16
2023-04-12T13:29:48.785Z,99802.19
2023-04-12T13:32:51.521Z,99795.16
2023-04-12T13:35:55.651Z,99783.28
2023-04-12T13:38:58.469Z,99804.03
2023-04-12T13:42:02.177Z,99793.72
2023-04-12T13:45:05.479Z,99783.41
2023-04-12T13:48:08.294Z,99777.94
2023-04-12T13:51:12.636Z,99770.97
2023-04-12T13:54:17.362Z,99767.72
2023-04-12T13:57:20.105Z,99761.97
2023-04-12T14:00:22.897Z,99762.19
2023-04-12T14:03:25.813Z,99757.94
2023-04-12T14:06:30.129Z,99752.97
2023-04-12T14:09:33.822Z,99740.97
2023-04-12T14:12:36.729Z,99742.13
2023-04-12T14:15:39.587Z,99744.31
2023-04-12T14:18:42.286Z,99745.63
2023-04-12T14:21:47.808Z,99740.00
2023-04-12T14:24:50.637Z,99732.31
2023-04-12T14:27:53.587Z,99732.88
2023-04-12T14:30:56.354Z,99732.84
2023-04-12T14:33:59.518Z,99749.63
2023-04-12T14:37:03.777Z,99736.44
2023-04-12T14:40:08.484Z,99735.56
2023-04-12T14:43:11.534Z,99746.44
2023-04-12T14:46:14.327Z,99752.88
2023-04-12T14:49:17.268Z,99760.47
2023-04-12T14:52:21.328Z,99756.69
2023-04-12T14:55:24.143Z,99760.38
2023-04-12T14:58:29.301Z,99775.34
2023-04-12T15:01:32.177Z,99761.75
2023-04-12T15:04:35.078Z,99760.41
2023-04-12T15:07:39.574Z,99780.44
2023-04-12T15:10:42.897Z,99771.66
2023-04-12T15:13:45.806Z,99773.72
2023-04-12T15:16:50.445Z,99776.38
2023-04-12T15:19:53.448Z,99787.88
2023-04-12T15:22:57.623Z,99781.75
2023-04-12T15:26:01.904Z,99786.84
2023-04-12T15:29:04.785Z,99800.25
2023-04-12T15:32:08.959Z,99803.06
2023-04-12T15:38:22.997Z,99797.38
2023-04-12T15:41:26.564Z,99796.47
2023-04-12T15:44:31.979Z,99790.22
2023-04-12T15:47:34.849Z,99790.44
2023-04-12T15:50:37.711Z,99796.72
2023-04-12T15:53:43.400Z,99787.94
2023-04-12T15:56:46.246Z,99795.38
2023-04-12T15:59:50.200Z,99774.63
2023-04-12T16:02:54.725Z,99780.78
2023-04-12T16:05:57.815Z,99774.16
2023-04-12T16:09:02.448Z,99767.03
2023-04-12T16:12:05.885Z,99763.88
2023-04-12T16:15:09.503Z,99761.78
2023-04-12T16:18:12.655Z,99755.75
2023-04-12T16:21:20.209Z,99741.19
2023-04-12T16:24:24.597Z,99735.22
2023-04-12T16:27:29.417Z,99735.38
2023-04-12T16:30:32.787Z,99735.00
2023-04-12T16:33:35.850Z,99731.47
2023-04-12T16:36:39.284Z,99736.97
2023-04-12T16:39:44.394Z,99733.91
2023-04-12T16:42:47.119Z,99735.00
2023-04-12T16:45:49.878Z,99731.16
2023-04-12T16:48:52.602Z,99721.94
2023-04-12T16:51:55.558Z,99719.75
2023-04-12T16:55:00.553Z,99723.97
2023-04-12T16:58:03.559Z,99722.94
2023-04-12T17:01:07.903Z,99723.06
2023-04-12T17:04:10.680Z,99727.16
2023-04-12T17:07:13.646Z,99723.94
2023-04-12T17:10:19.511Z,99715.81
2023-04-12T17:13:22.396Z,99717.97
2023-04-12T17:16:25.546Z,99718.34
2023-04-12T17:19:28.356Z,99700.88
2023-04-12T17:22:31.616Z,99698.41
2023-04-12T17:25:35.850Z,99696.03
2023-04-12T17:28:39.654Z,99699.38
2023-04-12T17:31:42.870Z,99703.59
2023-04-12T17:34:45.546Z,99700.59
2023-04-12T17:37:48.733Z,99692.91
2023-04-12T17:40:52.946Z,99692.28
2023-04-12T17:43:55.863Z,99690.34
2023-04-12T17:46:58.964Z,99678.34
2023-04-12T17:50:01.693Z,99684.75
2023-04-12T17:53:04.473Z,99682.09
2023-04-12T17:56:09.822Z,99679.94
2023-04-12T17:59:12.549Z,99684.75
2023-04-12T18:02:16.959Z,99681.53
2023-04-12T18:05:19.894Z,99676.59
2023-04-12T18:08:24.034Z,99675.50
2023-04-12T18:11:28.508Z,99669.03
2023-04-12T18:14:31.358Z,99677.19
2023-04-12T18:17:34.251Z,99679.47
2023-04-12T18:20:37.058Z,99679.75
2023-04-12T18:23:39.936Z,99685.97
2023-04-12T18:26:44.603Z,99672.19
2023-04-12T18:29:47.305Z,99667.91
2023-04-12T18:32:50.282Z,99670.00
2023-04-12T18:35:54.319Z,99667.72
2023-04-12T18:38:57.204Z,99670.53
2023-04-12T18:42:01.536Z,99659.94
2023-04-12T18:45:04.873Z,99657.34
2023-04-12T18:48:08.548Z,99662.09
2023-04-12T18:51:11.663Z,99663.75
2023-04-12T18:54:17.501Z,99657.59
2023-04-12T18:57:21.967Z,99656.09
2023-04-12T19:00:24.981Z,99657.25
2023-04-12T19:03:28.677Z,99665.28
2023-04-12T19:06:31.496Z,99667.78
2023-04-12T19:09:34.388Z,99675.63
2023-04-12T19:12:38.493Z,99679.00
2023-04-12T19:15:41.349Z,99671.63
2023-04-12T19:18:44.213Z,99666.50
2023-04-12T19:21:47.311Z,99664.03
2023-04-12T19:24:51.009Z,99642.28
2023-04-12T19:27:55.076Z,99645.91
2023-04-12T19:30:58.434Z,99638.53
2023-04-12T19:34:01.133Z,99645.66
2023-04-12T19:37:03.901Z,99639.09
2023-04-12T19:40:08.923Z,99639.72
2023-04-12T19:43:14.163Z,99633.34
2023-04-12T19:46:17.761Z,99629.50
2023-04-12T19:49:22.126Z,99630.41
2023-04-12T19:52:27.198Z,99622.72
2023-04-12T19:55:30.591Z,99626.28
2023-04-12T19:58:34.896Z,99631.66
2023-04-12T20:01:47.644Z,99622.81
2023-04-12T20:04:50.794Z,99618.19
2023-04-12T20:07:55.723Z,99612.66
2023-04-12T20:10:58.657Z,99613.44
2023-04-12T20:14:02.974Z,99612.00
2023-04-12T20:17:06.924Z,99607.28
2023-04-12T20:20:14.124Z,99609.47
2023-04-12T20:23:17.095Z,99603.00
2023-04-12T20:26:21.174Z,99604.91
2023-04-12T20:29:25.462Z,99601.66
2023-04-12T20:32:28.283Z,99590.91
2023-04-12T20:35:31.550Z,99583.41
2023-04-12T20:38:35.850Z,99569.22
2023-04-12T20:41:39.229Z,99555.66
2023-04-12T20:44:43.443Z,99571.69
2023-04-12T20:47:46.216Z,99570.88
2023-04-12T20:50:50.473Z,99580.81
2023-04-12T20:53:53.233Z,99574.50
2023-04-12T20:56:56.073Z,99575.38
2023-04-12T21:00:00.542Z,99570.69
2023-04-12T21:03:04.170Z,99572.91
2023-04-12T21:06:09.169Z,99572.47
2023-04-12T21:09:11.954Z,99576.34
2023-04-12T21:12:14.753Z,99573.88
2023-04-12T21:15:22.147Z,99583.78
2023-04-12T21:18:25.028Z,99583.28
2023-04-12T21:21:28.612Z,99575.81
2023-04-12T21:24:35.357Z,99575.22
2023-04-12T21:27:38.511Z,99582.88
2023-04-12T21:30:45.230Z,99569.56
2023-04-12T21:33:48.128Z,99571.50
2023-04-12T21:36:51.018Z,99583.03
2023-04-12T21:39:53.758Z,99566.63
2023-04-12T21:42:57.238Z,99571.75
2023-04-12T21:46:01.507Z,99569.38
2023-04-12T21:49:05.075Z,99582.03
2023-04-12T21:52:08.280Z,99573.25
2023-04-12T21:55:11.068Z,99569.63
2023-04-12T21:58:14.024Z,99572.59
2023-04-12T22:01:18.314Z,99568.22
2023-04-12T22:04:21.375Z,99571.56
2023-04-12T22:07:24.264Z,99573.75
2023-04-12T22:10:27.260Z,99566.41
2023-04-12T22:13:30.876Z,99554.94
2023-04-12T22:16:35.195Z,99566.75
2023-04-12T22:19:56.471Z,99563.38
2023-04-12T22:22:59.258Z,99573.47
2023-04-12T22:26:01.969Z,99579.88
2023-04-12T22:29:06.185Z,99583.16
2023-04-12T22:32:10.374Z,99587.81
2023-04-12T22:35:13.100Z,99602.78
2023-04-12T22:38:16.335Z,99598.50
2023-04-12T22:41:19.923Z,99600.44
2023-04-12T22:44:23.091Z,99607.28
2023-04-12T22:47:28.239Z,99604.63
2023-04-12T22:50:30.992Z,99597.91
2023-04-12T22:53:34.393Z,99592.50
2023-04-12T22:56:42.009Z,99583.16
2023-04-12T22:59:44.863Z,99589.97
2023-04-12T23:02:50.420Z,99584.72
2023-04-12T23:05:53.498Z,99586.72
2023-04-12T23:08:57.475Z,99581.19
2023-04-12T23:12:00.208Z,99577.13
2023-04-12T23:15:06.126Z,99578.59
2023-04-12T23:18:10.836Z,99571.72
2023-04-12T23:21:13.672Z,99572.84
2023-04-12T23:24:16.693Z,99567.91
2023-04-12T23:27:20.245Z,99566.59
2023-04-12T23:30:26.431Z,99567.13
2023-04-12T23:33:30.641Z,99580.84
2023-04-12T23:36:34.926Z,99594.25
2023-04-12T23:39:37.819Z,99585.75
2023-04-12T23:42:40.524Z,99589.63
2023-04-12T23:45:43.455Z,99594.59
2023-04-12T23:48:47.686Z,99580.06
2023-04-12T23:51:50.577Z,99570.25
2023-04-12T23:54:53.421Z,99564.78
2023-04-12T23:57:56.100Z,99569.47
